sensor_id;sensor_type;location;lat;lon;timestamp;pressure;altitude;pressure_sealevel;temperature;humidity
73633;BME280;61927;50.080;14.418;2023-05-10T00:00:33;99076.13;;;11.69;51.98
73633;BME280;61927;50.080;14.418;2023-05-10T00:03:09;99080.91;;;11.64;52.47
73633;BME280;61927;50.080;14.418;2023-05-10T00:05:35;99071.47;;;11.60;52.55
73633;BME280;61927;50.080;14.418;2023-05-10T00:08:01;99074.75;;;11.63;52.79
73633;BME280;61927;50.080;14.418;2023-05-10T00:10:26;99081.34;;;11.58;52.26
73633;BME280;61927;50.080;14.418;2023-05-10T00:12:52;99066.81;;;11.51;52.68
73633;BME280;61927;50.080;14.418;2023-05-10T00:15:18;99062.47;;;11.50;52.81
73633;BME280;61927;50.080;14.418;2023-05-10T00:17:43;99064.56;;;11.57;52.73
73633;BME280;61927;50.080;14.418;2023-05-10T00:20:10;99063.31;;;11.50;52.33
73633;BME280;61927;50.080;14.418;2023-05-10T00:22:35;99059.63;;;11.40;52.48
73633;BME280;61927;50.080;14.418;2023-05-10T00:25:01;99065.16;;;11.37;52.74
73633;BME280;61927;50.080;14.418;2023-05-10T00:27:27;99057.91;;;11.39;52.97
73633;BME280;61927;50.080;14.418;2023-05-10T00:29:52;99063.97;;;11.41;53.24
73633;BME280;61927;50.080;14.418;2023-05-10T00:32:18;99061.31;;;11.41;52.84
73633;BME280;61927;50.080;14.418;2023-05-10T00:34:44;99056.22;;;11.38;52.77
73633;BME280;61927;50.080;14.418;2023-05-10T00:37:09;99055.81;;;11.31;52.89
73633;BME280;61927;50.080;14.418;2023-05-10T00:39:35;99054.66;;;11.23;53.01
73633;BME280;61927;50.080;14.418;2023-05-10T00:42:00;99059.44;;;11.18;53.24
73633;BME280;61927;50.080;14.418;2023-05-10T00:44:26;99055.28;;;11.14;53.49
73633;BME280;61927;50.080;14.418;2023-05-10T00:46:52;99049.25;;;11.12;53.38
73633;BME280;61927;50.080;14.418;2023-05-10T00:49:19;99057.66;;;11.06;53.60
73633;BME280;61927;50.080;14.418;2023-05-10T00:51:45;99044.69;;;11.01;53.56
73633;BME280;61927;50.080;14.418;2023-05-10T00:54:12;99043.09;;;10.98;53.60
73633;BME280;61927;50.080;14.418;2023-05-10T00:56:39;99035.34;;;10.95;53.72
73633;BME280;61927;50.080;14.418;2023-05-10T00:59:06;99038.31;;;10.91;54.27
73633;BME280;61927;50.080;14.418;2023-05-10T01:01:33;99039.59;;;10.85;54.15
73633;BME280;61927;50.080;14.418;2023-05-10T01:03:59;99037.06;;;10.84;54.36
73633;BME280;61927;50.080;14.418;2023-05-10T01:06:24;99038.84;;;10.83;54.47
73633;BME280;61927;50.080;14.418;2023-05-10T01:08:50;99043.41;;;10.81;54.13
73633;BME280;61927;50.080;14.418;2023-05-10T01:11:16;99041.94;;;10.77;54.24
73633;BME280;61927;50.080;14.418;2023-05-10T01:13:43;99038.31;;;10.78;54.54
73633;BME280;61927;50.080;14.418;2023-05-10T01:16:12;99038.44;;;10.77;54.52
73633;BME280;61927;50.080;14.418;2023-05-10T01:18:40;99041.41;;;10.72;54.67
73633;BME280;61927;50.080;14.418;2023-05-10T01:27:25;99027.81;;;10.64;54.89
73633;BME280;61927;50.080;14.418;2023-05-10T01:32:43;99027.59;;;10.67;54.82
73633;BME280;61927;50.080;14.418;2023-05-10T01:35:17;99027.19;;;10.60;55.10
73633;BME280;61927;50.080;14.418;2023-05-10T01:37:59;99024.63;;;10.59;55.96
73633;BME280;61927;50.080;14.418;2023-05-10T01:40:42;99020.81;;;10.63;55.21
73633;BME280;61927;50.080;14.418;2023-05-10T01:43:17;99029.50;;;10.65;54.95
73633;BME280;61927;50.080;14.418;2023-05-10T01:45:58;99021.03;;;10.60;55.11
73633;BME280;61927;50.080;14.418;2023-05-10T01:48:26;99018.56;;;10.57;55.34
73633;BME280;61927;50.080;14.418;2023-05-10T01:50:55;99018.69;;;10.55;55.25
73633;BME280;61927;50.080;14.418;2023-05-10T01:53:22;99020.69;;;10.52;55.55
73633;BME280;61927;50.080;14.418;2023-05-10T01:55:51;99014.44;;;10.53;55.74
73633;BME280;61927;50.080;14.418;2023-05-10T01:58:25;99014.66;;;10.50;55.77
73633;BME280;61927;50.080;14.418;2023-05-10T02:00:53;99017.50;;;10.47;55.76
73633;BME280;61927;50.080;14.418;2023-05-10T02:03:22;99012.19;;;10.47;55.56
73633;BME280;61927;50.080;14.418;2023-05-10T02:05:49;99014.00;;;10.46;55.87
73633;BME280;61927;50.080;14.418;2023-05-10T02:08:17;99014.84;;;10.47;55.86
73633;BME280;61927;50.080;14.418;2023-05-10T02:10:45;99027.16;;;10.48;56.13
73633;BME280;61927;50.080;14.418;2023-05-10T02:13:11;99017.94;;;10.53;55.68
73633;BME280;61927;50.080;14.418;2023-05-10T02:15:38;99020.47;;;10.55;55.47
73633;BME280;61927;50.080;14.418;2023-05-10T02:18:06;99022.94;;;10.58;55.64
73633;BME280;61927;50.080;14.418;2023-05-10T02:20:33;99016.97;;;10.54;55.91
73633;BME280;61927;50.080;14.418;2023-05-10T02:23:00;99023.56;;;10.49;55.91
73633;BME280;61927;50.080;14.418;2023-05-10T02:25:28;99024.19;;;10.52;55.96
73633;BME280;61927;50.080;14.418;2023-05-10T02:27:56;99020.47;;;10.55;56.20
73633;BME280;61927;50.080;14.418;2023-05-10T02:30:23;99019.63;;;10.54;56.16
73633;BME280;61927;50.080;14.418;2023-05-10T02:32:50;99016.34;;;10.51;56.41
73633;BME280;61927;50.080;14.418;2023-05-10T02:35:17;99011.47;;;10.45;56.24
73633;BME280;61927;50.080;14.418;2023-05-10T02:37:43;99008.81;;;10.45;56.80
73633;BME280;61927;50.080;14.418;2023-05-10T02:40:10;99011.66;;;10.42;57.03
73633;BME280;61927;50.080;14.418;2023-05-10T02:42:37;99016.22;;;10.40;56.95
73633;BME280;61927;50.080;14.418;2023-05-10T02:45:08;99005.72;;;10.38;56.58
73633;BME280;61927;50.080;14.418;2023-05-10T02:47:36;99016.53;;;10.35;56.84
73633;BME280;61927;50.080;14.418;2023-05-10T02:50:02;99008.78;;;10.32;56.88
73633;BME280;61927;50.080;14.418;2023-05-10T02:52:30;99016.84;;;10.30;57.18
73633;BME280;61927;50.080;14.418;2023-05-10T02:55:04;99018.97;;;10.25;56.90
73633;BME280;61927;50.080;14.418;2023-05-10T02:57:34;99012.16;;;10.21;57.70
73633;BME280;61927;50.080;14.418;2023-05-10T03:00:01;99011.59;;;10.16;57.64
73633;BME280;61927;50.080;14.418;2023-05-10T03:02:28;99010.66;;;10.17;57.36
73633;BME280;61927;50.080;14.418;2023-05-10T03:04:56;99014.16;;;10.18;57.88
73633;BME280;61927;50.080;14.418;2023-05-10T03:07:22;99003.91;;;10.26;57.88
73633;BME280;61927;50.080;14.418;2023-05-10T03:09:48;99007.81;;;10.20;57.90
73633;BME280;61927;50.080;14.418;2023-05-10T03:12:33;99002.91;;;10.14;58.16
73633;BME280;61927;50.080;14.418;2023-05-10T03:15:13;99009.88;;;10.02;58.74
73633;BME280;61927;50.080;14.418;2023-05-10T03:17:49;99006.47;;;10.00;58.83
73633;BME280;61927;50.080;14.418;2023-05-10T03:20:51;99007.38;;;9.87;59.32
73633;BME280;61927;50.080;14.418;2023-05-10T03:23:26;99008.34;;;9.86;59.24
73633;BME280;61927;50.080;14.418;2023-05-10T03:25:52;99007.59;;;9.84;59.11
73633;BME280;61927;50.080;14.418;2023-05-10T03:28:20;99006.09;;;9.80;59.38
73633;BME280;61927;50.080;14.418;2023-05-10T03:30:47;99007.25;;;9.76;59.64
73633;BME280;61927;50.080;14.418;2023-05-10T03:33:12;99011.50;;;9.78;59.46
73633;BME280;61927;50.080;14.418;2023-05-10T03:35:39;99010.44;;;9.81;59.64
73633;BME280;61927;50.080;14.418;2023-05-10T03:38:04;99011.84;;;9.86;59.82
73633;BME280;61927;50.080;14.418;2023-05-10T03:40:30;99028.88;;;9.82;59.88
73633;BME280;61927;50.080;14.418;2023-05-10T03:43:00;99017.09;;;9.74;60.34
73633;BME280;61927;50.080;14.418;2023-05-10T03:45:26;99019.94;;;9.70;60.61
73633;BME280;61927;50.080;14.418;2023-05-10T03:47:52;99028.72;;;9.71;60.99
73633;BME280;61927;50.080;14.418;2023-05-10T03:50:18;99024.47;;;9.68;60.62
73633;BME280;61927;50.080;14.418;2023-05-10T03:52:44;99029.03;;;9.66;60.59
73633;BME280;61927;50.080;14.418;2023-05-10T03:55:10;99027.44;;;9.64;61.20
73633;BME280;61927;50.080;14.418;2023-05-10T03:57:35;99030.94;;;9.64;61.23
73633;BME280;61927;50.080;14.418;2023-05-10T04:00:02;99035.28;;;9.65;61.35
73633;BME280;61927;50.080;14.418;2023-05-10T04:02:28;99033.56;;;9.64;60.95
73633;BME280;61927;50.080;14.418;2023-05-10T04:04:55;99028.47;;;9.61;61.08
73633;BME280;61927;50.080;14.418;2023-05-10T04:07:21;99032.81;;;9.62;61.24
73633;BME280;61927;50.080;14.418;2023-05-10T04:09:47;99026.38;;;9.66;61.52
73633;BME280;61927;50.080;14.418;2023-05-10T04:12:12;99027.88;;;9.70;61.27
73633;BME280;61927;50.080;14.418;2023-05-10T04:14:38;99029.69;;;9.70;60.78
73633;BME280;61927;50.080;14.418;2023-05-10T04:17:03;99024.59;;;9.67;60.73
73633;BME280;61927;50.080;14.418;2023-05-10T04:19:32;99029.13;;;9.65;61.05
73633;BME280;61927;50.080;14.418;2023-05-10T04:21:58;99023.22;;;9.74;60.96
73633;BME280;61927;50.080;14.418;2023-05-10T04:24:25;99020.84;;;9.84;60.48
73633;BME280;61927;50.080;14.418;2023-05-10T04:26:51;99024.13;;;9.87;60.50
73633;BME280;61927;50.080;14.418;2023-05-10T04:29:16;99018.63;;;9.90;60.55
73633;BME280;61927;50.080;14.418;2023-05-10T04:31:42;99021.19;;;9.92;59.92
73633;BME280;61927;50.080;14.418;2023-05-10T04:34:08;99016.53;;;9.95;60.53
73633;BME280;61927;50.080;14.418;2023-05-10T04:36:33;99020.31;;;9.91;60.27
73633;BME280;61927;50.080;14.418;2023-05-10T04:39:02;99010.03;;;9.87;60.59
73633;BME280;61927;50.080;14.418;2023-05-10T04:41:30;99017.03;;;9.88;60.30
73633;BME280;61927;50.080;14.418;2023-05-10T04:43:56;99013.22;;;9.92;60.07
73633;BME280;61927;50.080;14.418;2023-05-10T04:46:21;99013.66;;;9.98;59.98
73633;BME280;61927;50.080;14.418;2023-05-10T04:48:47;99012.31;;;10.06;59.92
73633;BME280;61927;50.080;14.418;2023-05-10T04:51:13;99019.75;;;10.13;60.13
73633;BME280;61927;50.080;14.418;2023-05-10T04:53:39;99013.88;;;10.22;59.30
73633;BME280;61927;50.080;14.418;2023-05-10T04:56:05;99005.59;;;10.27;59.27
73633;BME280;61927;50.080;14.418;2023-05-10T04:58:30;99013.16;;;10.33;59.15
73633;BME280;61927;50.080;14.418;2023-05-10T05:00:56;99014.22;;;10.43;59.03
73633;BME280;61927;50.080;14.418;2023-05-10T05:03:22;99007.66;;;10.49;58.93
73633;BME280;61927;50.080;14.418;2023-05-10T05:05:48;99009.66;;;10.58;58.72
73633;BME280;61927;50.080;14.418;2023-05-10T05:08:14;99003.72;;;10.67;58.50
73633;BME280;61927;50.080;14.418;2023-05-10T05:10:39;99010.72;;;10.68;58.57
73633;BME280;61927;50.080;14.418;2023-05-10T05:13:05;99010.72;;;10.68;58.11
73633;BME280;61927;50.080;14.418;2023-05-10T05:15:31;99014.13;;;10.70;58.81
73633;BME280;61927;50.080;14.418;2023-05-10T05:17:57;99011.25;;;10.73;58.63
73633;BME280;61927;50.080;14.418;2023-05-10T05:20:22;99013.28;;;10.82;58.36
73633;BME280;61927;50.080;14.418;2023-05-10T05:22:49;99010.28;;;10.87;57.86
73633;BME280;61927;50.080;14.418;2023-05-10T05:25:14;99009.22;;;10.89;58.08
73633;BME280;61927;50.080;14.418;2023-05-10T05:27:41;99015.06;;;10.94;58.02
73633;BME280;61927;50.080;14.418;2023-05-10T05:30:07;99018.47;;;10.96;58.48
73633;BME280;61927;50.080;14.418;2023-05-10T05:32:33;99020.16;;;10.97;58.00
73633;BME280;61927;50.080;14.418;2023-05-10T05:34:59;99021.66;;;11.02;58.17
73633;BME280;61927;50.080;14.418;2023-05-10T05:37:25;99017.59;;;11.09;57.60
73633;BME280;61927;50.080;14.418;2023-05-10T05:39:51;99020.56;;;11.17;57.47
73633;BME280;61927;50.080;14.418;2023-05-10T05:42:16;99012.47;;;11.18;57.64
73633;BME280;61927;50.080;14.418;2023-05-10T05:44:44;99016.94;;;11.18;57.54
73633;BME280;61927;50.080;14.418;2023-05-10T05:47:10;99013.13;;;11.22;57.94
73633;BME280;61927;50.080;14.418;2023-05-10T05:49:36;99016.06;;;11.30;57.69
73633;BME280;61927;50.080;14.418;2023-05-10T05:52:03;99011.78;;;11.40;56.88
73633;BME280;61927;50.080;14.418;2023-05-10T05:54:29;99015.94;;;11.44;56.81
73633;BME280;61927;50.080;14.418;2023-05-10T05:56:57;99010.50;;;11.46;56.33
73633;BME280;61927;50.080;14.418;2023-05-10T05:59:23;99016.34;;;11.51;56.54
73633;BME280;61927;50.080;14.418;2023-05-10T06:01:49;99013.84;;;11.60;56.90
73633;BME280;61927;50.080;14.418;2023-05-10T06:04:15;99014.66;;;11.74;56.21
73633;BME280;61927;50.080;14.418;2023-05-10T06:06:41;99023.78;;;11.82;56.23
73633;BME280;61927;50.080;14.418;2023-05-10T06:09:08;99017.91;;;11.90;55.65
73633;BME280;61927;50.080;14.418;2023-05-10T06:11:34;99012.59;;;11.90;55.38
73633;BME280;61927;50.080;14.418;2023-05-10T06:14:00;99018.25;;;11.85;56.16
73633;BME280;61927;50.080;14.418;2023-05-10T06:16:27;99011.63;;;11.91;55.75
73633;BME280;61927;50.080;14.418;2023-05-10T06:18:53;99015.88;;;11.93;56.05
73633;BME280;61927;50.080;14.418;2023-05-10T06:21:18;99009.59;;;11.94;55.92
73633;BME280;61927;50.080;14.418;2023-05-10T06:23:44;99012.28;;;12.06;55.88
73633;BME280;61927;50.080;14.418;2023-05-10T06:26:11;99015.47;;;12.11;56.25
73633;BME280;61927;50.080;14.418;2023-05-10T06:28:37;99009.19;;;12.12;55.95
73633;BME280;61927;50.080;14.418;2023-05-10T06:31:04;99012.34;;;12.17;55.96
73633;BME280;61927;50.080;14.418;2023-05-10T06:33:30;99012.72;;;12.23;56.05
73633;BME280;61927;50.080;14.418;2023-05-10T06:35:56;99016.97;;;12.26;55.88
73633;BME280;61927;50.080;14.418;2023-05-10T06:38:22;99007.91;;;12.28;56.02
73633;BME280;61927;50.080;14.418;2023-05-10T06:40:48;99012.88;;;12.33;56.07
73633;BME280;61927;50.080;14.418;2023-05-10T06:43:14;99000.06;;;12.38;55.71
73633;BME280;61927;50.080;14.418;2023-05-10T06:45:40;99001.41;;;12.44;55.61
73633;BME280;61927;50.080;14.418;2023-05-10T06:48:06;98999.75;;;12.54;55.52
73633;BME280;61927;50.080;14.418;2023-05-10T06:50:32;99006.06;;;12.64;55.26
73633;BME280;61927;50.080;14.418;2023-05-10T06:52:59;98996.13;;;12.66;55.02
73633;BME280;61927;50.080;14.418;2023-05-10T06:55:25;98999.78;;;12.76;54.92
73633;BME280;61927;50.080;14.418;2023-05-10T06:57:50;99000.41;;;12.91;54.43
73633;BME280;61927;50.080;14.418;2023-05-10T07:00:17;99000.88;;;12.96;54.52
73633;BME280;61927;50.080;14.418;2023-05-10T07:02:43;99004.88;;;13.02;52.90
73633;BME280;61927;50.080;14.418;2023-05-10T07:05:09;98995.19;;;13.12;53.04
73633;BME280;61927;50.080;14.418;2023-05-10T07:07:35;99001.38;;;13.12;52.66
73633;BME280;61927;50.080;14.418;2023-05-10T07:10:01;98994.59;;;13.19;52.11
73633;BME280;61927;50.080;14.418;2023-05-10T07:12:27;98995.94;;;13.25;52.38
73633;BME280;61927;50.080;14.418;2023-05-10T07:14:53;98993.50;;;13.33;51.87
73633;BME280;61927;50.080;14.418;2023-05-10T07:17:19;98998.56;;;13.47;51.67
73633;BME280;61927;50.080;14.418;2023-05-10T07:19:45;98996.72;;;13.59;51.07
73633;BME280;61927;50.080;14.418;2023-05-10T07:22:10;98995.38;;;13.65;51.16
73633;BME280;61927;50.080;14.418;2023-05-10T07:24:36;98995.38;;;13.65;50.99
73633;BME280;61927;50.080;14.418;2023-05-10T07:27:01;98992.56;;;13.77;50.59
73633;BME280;61927;50.080;14.418;2023-05-10T07:29:27;98991.22;;;13.83;50.26
73633;BME280;61927;50.080;14.418;2023-05-10T07:31:54;98994.94;;;13.92;50.35
73633;BME280;61927;50.080;14.418;2023-05-10T07:34:19;98986.81;;;13.93;50.25
73633;BME280;61927;50.080;14.418;2023-05-10T07:36:45;98988.72;;;14.02;50.29
73633;BME280;61927;50.080;14.418;2023-05-10T07:39:11;98993.03;;;14.14;50.00
73633;BME280;61927;50.080;14.418;2023-05-10T07:41:37;98987.44;;;14.17;50.18
73633;BME280;61927;50.080;14.418;2023-05-10T07:44:04;98978.50;;;14.28;50.63
73633;BME280;61927;50.080;14.418;2023-05-10T07:46:30;98995.81;;;14.45;50.45
73633;BME280;61927;50.080;14.418;2023-05-10T07:48:56;98991.19;;;14.47;49.80
73633;BME280;61927;50.080;14.418;2023-05-10T07:51:22;98988.25;;;14.50;49.68
73633;BME280;61927;50.080;14.418;2023-05-10T07:53:47;98984.09;;;14.57;50.12
73633;BME280;61927;50.080;14.418;2023-05-10T07:56:30;98979.19;;;14.62;49.08
73633;BME280;61927;50.080;14.418;2023-05-10T07:58:58;98982.91;;;14.71;48.75
73633;BME280;61927;50.080;14.418;2023-05-10T08:01:24;98979.97;;;14.74;48.77
73633;BME280;61927;50.080;14.418;2023-05-10T08:03:51;98984.84;;;14.69;49.07
73633;BME280;61927;50.080;14.418;2023-05-10T08:06:20;98981.19;;;14.70;49.36
73633;BME280;61927;50.080;14.418;2023-05-10T08:08:47;98981.78;;;14.73;49.05
73633;BME280;61927;50.080;14.418;2023-05-10T08:11:16;98981.97;;;14.81;48.85
73633;BME280;61927;50.080;14.418;2023-05-10T08:13:55;98980.75;;;14.95;48.58
73633;BME280;61927;50.080;14.418;2023-05-10T08:16:22;98985.16;;;15.06;48.52
73633;BME280;61927;50.080;14.418;2023-05-10T08:18:48;98986.47;;;15.11;48.62
73633;BME280;61927;50.080;14.418;2023-05-10T08:21:16;98994.22;;;15.14;48.67
73633;BME280;61927;50.080;14.418;2023-05-10T08:23:44;98982.75;;;15.33;48.15
73633;BME280;61927;50.080;14.418;2023-05-10T08:26:09;98987.97;;;15.44;47.89
73633;BME280;61927;50.080;14.418;2023-05-10T08:28:36;98997.41;;;15.48;47.32
73633;BME280;61927;50.080;14.418;2023-05-10T08:31:01;98993.06;;;15.47;47.30
73633;BME280;61927;50.080;14.418;2023-05-10T08:33:27;98992.78;;;15.50;47.35
73633;BME280;61927;50.080;14.418;2023-05-10T08:35:52;98988.00;;;15.54;47.29
73633;BME280;61927;50.080;14.418;2023-05-10T08:38:18;98982.66;;;15.54;47.47
73633;BME280;61927;50.080;14.418;2023-05-10T08:40:44;98984.22;;;15.57;47.11
73633;BME280;61927;50.080;14.418;2023-05-10T08:43:12;98978.84;;;15.57;47.34
73633;BME280;61927;50.080;14.418;2023-05-10T08:45:41;98984.53;;;15.63;47.35
73633;BME280;61927;50.080;14.418;2023-05-10T08:48:09;98976.25;;;15.76;47.32
73633;BME280;61927;50.080;14.418;2023-05-10T08:50:36;98973.16;;;15.90;47.42
73633;BME280;61927;50.080;14.418;2023-05-10T08:53:05;98980.06;;;16.02;46.99
73633;BME280;61927;50.080;14.418;2023-05-10T08:55:32;98980.91;;;16.12;45.80
73633;BME280;61927;50.080;14.418;2023-05-10T08:57:59;98982.16;;;16.18;45.89
73633;BME280;61927;50.080;14.418;2023-05-10T09:00:26;98987.53;;;16.28;45.78
73633;BME280;61927;50.080;14.418;2023-05-10T09:02:55;98967.09;;;16.27;44.97
73633;BME280;61927;50.080;14.418;2023-05-10T09:05:21;98973.56;;;16.24;45.13
73633;BME280;61927;50.080;14.418;2023-05-10T09:07:47;98977.81;;;16.27;45.55
73633;BME280;61927;50.080;14.418;2023-05-10T09:10:14;98972.03;;;16.31;45.33
73633;BME280;61927;50.080;14.418;2023-05-10T09:12:41;98967.34;;;16.43;45.65
73633;BME280;61927;50.080;14.418;2023-05-10T09:15:07;98979.75;;;16.44;45.43
73633;BME280;61927;50.080;14.418;2023-05-10T09:17:35;98973.09;;;16.58;44.99
73633;BME280;61927;50.080;14.418;2023-05-10T09:20:04;98976.06;;;16.64;44.97
73633;BME280;61927;50.080;14.418;2023-05-10T09:22:31;98974.47;;;16.81;43.56
73633;BME280;61927;50.080;14.418;2023-05-10T09:25:23;98973.47;;;16.92;43.38
73633;BME280;61927;50.080;14.418;2023-05-10T09:27:49;98973.72;;;16.98;43.52
73633;BME280;61927;50.080;14.418;2023-05-10T09:30:30;98975.22;;;17.10;43.38
73633;BME280;61927;50.080;14.418;2023-05-10T09:32:57;98971.41;;;17.13;43.49
73633;BME280;61927;50.080;14.418;2023-05-10T09:35:26;98972.19;;;17.23;43.06
73633;BME280;61927;50.080;14.418;2023-05-10T09:37:54;98970.59;;;17.30;43.18
73633;BME280;61927;50.080;14.418;2023-05-10T09:40:21;98978.59;;;17.40;42.84
73633;BME280;61927;50.080;14.418;2023-05-10T09:42:59;98979.75;;;17.37;43.30
73633;BME280;61927;50.080;14.418;2023-05-10T09:45:28;98977.06;;;17.37;43.36
73633;BME280;61927;50.080;14.418;2023-05-10T09:47:55;98969.41;;;17.42;43.13
73633;BME280;61927;50.080;14.418;2023-05-10T09:50:22;98965.00;;;17.51;42.90
73633;BME280;61927;50.080;14.418;2023-05-10T09:53:06;98967.66;;;17.51;42.94
73633;BME280;61927;50.080;14.418;2023-05-10T09:58:07;98961.09;;;17.63;42.52
73633;BME280;61927;50.080;14.418;2023-05-10T10:00:40;98957.31;;;17.84;41.90
73633;BME280;61927;50.080;14.418;2023-05-10T10:03:06;98961.63;;;17.94;42.00
73633;BME280;61927;50.080;14.418;2023-05-10T10:05:40;98961.06;;;18.08;41.58
73633;BME280;61927;50.080;14.418;2023-05-10T10:08:07;98967.72;;;18.22;41.06
73633;BME280;61927;50.080;14.418;2023-05-10T10:10:33;98958.84;;;18.22;41.21
73633;BME280;61927;50.080;14.418;2023-05-10T10:12:59;98961.38;;;18.23;41.04
73633;BME280;61927;50.080;14.418;2023-05-10T10:15:26;98962.38;;;18.22;41.18
73633;BME280;61927;50.080;14.418;2023-05-10T10:17:52;98959.22;;;18.27;41.08
73633;BME280;61927;50.080;14.418;2023-05-10T10:20:20;98966.59;;;18.25;40.93
73633;BME280;61927;50.080;14.418;2023-05-10T10:22:47;98954.69;;;18.27;40.81
73633;BME280;61927;50.080;14.418;2023-05-10T10:25:16;98949.69;;;18.32;41.08
73633;BME280;61927;50.080;14.418;2023-05-10T10:30:44;98944.81;;;18.54;41.01
73633;BME280;61927;50.080;14.418;2023-05-10T10:35:58;98945.63;;;18.72;39.97
73633;BME280;61927;50.080;14.418;2023-05-10T10:38:24;98945.47;;;18.74;39.83
73633;BME280;61927;50.080;14.418;2023-05-10T10:49:25;98944.38;;;19.26;38.17
73633;BME280;61927;50.080;14.418;2023-05-10T10:55:00;98940.34;;;19.22;38.56
73633;BME280;61927;50.080;14.418;2023-05-10T10:57:28;98939.84;;;19.27;38.39
73633;BME280;61927;50.080;14.418;2023-05-10T11:02:57;98928.28;;;19.34;38.45
73633;BME280;61927;50.080;14.418;2023-05-10T11:07:53;98927.03;;;19.55;38.16
73633;BME280;61927;50.080;14.418;2023-05-10T11:10:23;98917.13;;;19.72;37.88
73633;BME280;61927;50.080;14.418;2023-05-10T11:15:19;98912.13;;;20.17;36.86
73633;BME280;61927;50.080;14.418;2023-05-10T11:17:45;98918.34;;;20.26;36.40
73633;BME280;61927;50.080;14.418;2023-05-10T11:20:17;98913.28;;;20.47;36.58
73633;BME280;61927;50.080;14.418;2023-05-10T11:22:52;98901.00;;;20.53;36.73
73633;BME280;61927;50.080;14.418;2023-05-10T11:25:18;98913.63;;;20.60;35.99
73633;BME280;61927;50.080;14.418;2023-05-10T11:27:45;98916.31;;;20.52;35.66
73633;BME280;61927;50.080;14.418;2023-05-10T11:30:13;98916.34;;;20.44;36.23
73633;BME280;61927;50.080;14.418;2023-05-10T11:32:40;98910.94;;;20.28;36.50
73633;BME280;61927;50.080;14.418;2023-05-10T11:35:10;98914.81;;;20.25;37.08
73633;BME280;61927;50.080;14.418;2023-05-10T11:37:36;98907.91;;;20.23;37.08
73633;BME280;61927;50.080;14.418;2023-05-10T11:40:02;98913.28;;;20.23;37.01
73633;BME280;61927;50.080;14.418;2023-05-10T11:42:29;98916.31;;;20.28;36.86
73633;BME280;61927;50.080;14.418;2023-05-10T11:44:55;98919.88;;;20.45;36.76
73633;BME280;61927;50.080;14.418;2023-05-10T11:47:21;98922.38;;;20.62;36.25
73633;BME280;61927;50.080;14.418;2023-05-10T11:49:47;98917.13;;;20.69;35.51
73633;BME280;61927;50.080;14.418;2023-05-10T11:52:14;98916.63;;;20.66;35.84
73633;BME280;61927;50.080;14.418;2023-05-10T11:54:51;98918.97;;;20.69;35.93
73633;BME280;61927;50.080;14.418;2023-05-10T11:57:18;98907.16;;;20.78;35.92
73633;BME280;61927;50.080;14.418;2023-05-10T11:59:46;98914.91;;;20.81;35.73
73633;BME280;61927;50.080;14.418;2023-05-10T12:02:13;98915.75;;;20.81;35.35
73633;BME280;61927;50.080;14.418;2023-05-10T12:04:39;98915.72;;;20.89;35.72
73633;BME280;61927;50.080;14.418;2023-05-10T12:07:05;98918.41;;;20.89;35.43
73633;BME280;61927;50.080;14.418;2023-05-10T12:09:32;98923.47;;;20.92;36.14
73633;BME280;61927;50.080;14.418;2023-05-10T12:11:59;98920.22;;;21.05;36.05
73633;BME280;61927;50.080;14.418;2023-05-10T12:14:25;98921.91;;;21.06;35.49
73633;BME280;61927;50.080;14.418;2023-05-10T12:16:50;98928.31;;;21.05;35.27
73633;BME280;61927;50.080;14.418;2023-05-10T12:19:19;98928.97;;;21.07;35.15
73633;BME280;61927;50.080;14.418;2023-05-10T12:21:48;98928.84;;;21.01;35.17
73633;BME280;61927;50.080;14.418;2023-05-10T12:24:14;98924.31;;;20.93;35.21
73633;BME280;61927;50.080;14.418;2023-05-10T12:26:45;98934.28;;;20.84;36.20
73633;BME280;61927;50.080;14.418;2023-05-10T12:29:15;98935.50;;;20.74;36.17
73633;BME280;61927;50.080;14.418;2023-05-10T12:31:55;98933.66;;;20.66;35.69
73633;BME280;61927;50.080;14.418;2023-05-10T12:34:34;98935.03;;;20.54;36.14
73633;BME280;61927;50.080;14.418;2023-05-10T12:37:02;98930.47;;;20.46;36.63
73633;BME280;61927;50.080;14.418;2023-05-10T12:39:43;98928.13;;;20.43;36.96
73633;BME280;61927;50.080;14.418;2023-05-10T12:42:12;98928.97;;;20.44;36.51
73633;BME280;61927;50.080;14.418;2023-05-10T12:44:38;98924.75;;;20.41;36.54
73633;BME280;61927;50.080;14.418;2023-05-10T12:47:05;98929.63;;;20.38;37.21
73633;BME280;61927;50.080;14.418;2023-05-10T12:49:31;98929.13;;;20.34;37.22
73633;BME280;61927;50.080;14.418;2023-05-10T12:51:57;98935.50;;;20.33;37.32
73633;BME280;61927;50.080;14.418;2023-05-10T12:54:22;98936.53;;;20.32;37.28
73633;BME280;61927;50.080;14.418;2023-05-10T12:56:48;98936.69;;;20.30;37.20
73633;BME280;61927;50.080;14.418;2023-05-10T12:59:14;98935.84;;;20.30;37.26
73633;BME280;61927;50.080;14.418;2023-05-10T13:01:39;98933.81;;;20.32;37.81
73633;BME280;61927;50.080;14.418;2023-05-10T13:04:05;98933.00;;;20.31;37.70
73633;BME280;61927;50.080;14.418;2023-05-10T13:06:31;98931.31;;;20.30;37.85
73633;BME280;61927;50.080;14.418;2023-05-10T13:08:57;98929.28;;;20.24;38.31
73633;BME280;61927;50.080;14.418;2023-05-10T13:11:23;98933.84;;;20.24;38.42
73633;BME280;61927;50.080;14.418;2023-05-10T13:13:49;98935.00;;;20.29;38.31
73633;BME280;61927;50.080;14.418;2023-05-10T13:16:15;98932.81;;;20.33;38.15
73633;BME280;61927;50.080;14.418;2023-05-10T13:18:40;98933.50;;;20.35;37.91
73633;BME280;61927;50.080;14.418;2023-05-10T13:21:06;98933.66;;;20.33;38.24
73633;BME280;61927;50.080;14.418;2023-05-10T13:23:33;98934.88;;;20.39;38.43
73633;BME280;61927;50.080;14.418;2023-05-10T13:26:00;98934.00;;;20.47;38.30
73633;BME280;61927;50.080;14.418;2023-05-10T13:28:26;98937.38;;;20.41;37.96